NSP6 KONT-PHKO
Flight info
| Callsign | NSP6 |
|---|---|
| Flight time | N/A |
| Altitude | 34000 |
| Route | SNSHN5 COREZ AVE PIRAT BEBOP R464 BILLO/N0466F360 R464 BITTA/N0465F370 PULPS V11 UPP KAYAK6 |
| Aircraft | B763/H-SDE3FGHIM3RWXY/LB1 |
Departure
| Time | 2026-05-06 10:38 |
|---|---|
| Airport | Ontario International Airport (KONT) |
Arrival
| Time | N/A |
|---|---|
| Airport | Ellison Onizuka Kona International Airport at Keāhole (PHKO) |
| Time | Latitude | Longitude | Altitude | Speed | Heading |
|---|---|---|---|---|---|
| 2026-05-06 10:10 | 34.06018 | -117.60706 | 952 ft | 0 kts | 314° |
| 2026-05-06 10:28 | 34.06014 | -117.60702 | 952 ft | 2 kts | 312° |
| 2026-05-06 10:29 | 34.06005 | -117.60687 | 951 ft | 2 kts | 296° |
| 2026-05-06 10:29 | 34.06000 | -117.60671 | 951 ft | 2 kts | 283° |
| 2026-05-06 10:29 | 34.05998 | -117.60653 | 951 ft | 2 kts | 270° |
| 2026-05-06 10:29 | 34.05998 | -117.60635 | 951 ft | 2 kts | 258° |
| 2026-05-06 10:30 | 34.06002 | -117.60619 | 950 ft | 2 kts | 245° |
| 2026-05-06 10:30 | 34.06010 | -117.60603 | 950 ft | 2 kts | 232° |
| 2026-05-06 10:30 | 34.06016 | -117.60594 | 950 ft | 0 kts | 224° |
| 2026-05-06 10:30 | 34.06017 | -117.60593 | 950 ft | 0 kts | 224° |
| 2026-05-06 10:31 | 34.06016 | -117.60594 | 950 ft | 0 kts | 224° |
| 2026-05-06 10:32 | 34.05997 | -117.60618 | 950 ft | 7 kts | 225° |
| 2026-05-06 10:32 | 34.05927 | -117.60702 | 948 ft | 21 kts | 225° |
| 2026-05-06 10:32 | 34.05843 | -117.60793 | 945 ft | 8 kts | 194° |
| 2026-05-06 10:33 | 34.05803 | -117.60770 | 943 ft | 5 kts | 112° |
| 2026-05-06 10:33 | 34.05800 | -117.60712 | 943 ft | 10 kts | 89° |
| 2026-05-06 10:33 | 34.05801 | -117.60579 | 942 ft | 21 kts | 91° |
| 2026-05-06 10:33 | 34.05799 | -117.60352 | 940 ft | 32 kts | 90° |
| 2026-05-06 10:34 | 34.05799 | -117.60043 | 937 ft | 40 kts | 90° |
| 2026-05-06 10:34 | 34.05800 | -117.59712 | 937 ft | 38 kts | 90° |
| 2026-05-06 10:34 | 34.05800 | -117.59394 | 937 ft | 41 kts | 89° |
| 2026-05-06 10:34 | 34.05801 | -117.59028 | 937 ft | 42 kts | 89° |
| 2026-05-06 10:35 | 34.05800 | -117.58688 | 940 ft | 38 kts | 89° |
| 2026-05-06 10:35 | 34.05800 | -117.58408 | 940 ft | 18 kts | 89° |
| 2026-05-06 10:35 | 34.05800 | -117.58314 | 940 ft | 6 kts | 95° |
| 2026-05-06 10:35 | 34.05766 | -117.58278 | 939 ft | 11 kts | 164° |
| 2026-05-06 10:36 | 34.05639 | -117.58272 | 934 ft | 26 kts | 179° |
| 2026-05-06 10:36 | 34.05513 | -117.58297 | 929 ft | 15 kts | 233° |
| 2026-05-06 10:36 | 34.05499 | -117.58446 | 926 ft | 31 kts | 269° |
| 2026-05-06 10:36 | 34.05499 | -117.58896 | 925 ft | 75 kts | 270° |
| 2026-05-06 10:37 | 34.05497 | -117.59692 | 925 ft | 114 kts | 270° |
| 2026-05-06 10:37 | 34.05495 | -117.60783 | 931 ft | 148 kts | 270° |
| 2026-05-06 10:37 | 34.05493 | -117.62146 | 983 ft | 174 kts | 270° |
| 2026-05-06 10:37 | 34.05506 | -117.63644 | 1225 ft | 186 kts | 270° |
| 2026-05-06 10:38 | 34.05528 | -117.65248 | 1527 ft | 199 kts | 274° |
| 2026-05-06 10:38 | 34.05645 | -117.66972 | 1811 ft | 214 kts | 275° |
| 2026-05-06 10:38 | 34.05764 | -117.68842 | 2118 ft | 229 kts | 275° |
| 2026-05-06 10:38 | 34.05961 | -117.70745 | 2658 ft | 230 kts | 285° |
| 2026-05-06 10:39 | 34.06395 | -117.72581 | 3194 ft | 231 kts | 287° |
| 2026-05-06 10:39 | 34.06834 | -117.74445 | 3742 ft | 232 kts | 286° |
| 2026-05-06 10:39 | 34.07275 | -117.76308 | 4277 ft | 233 kts | 287° |
| 2026-05-06 10:39 | 34.07760 | -117.78183 | 4776 ft | 234 kts | 296° |
| 2026-05-06 10:40 | 34.08714 | -117.79754 | 5231 ft | 235 kts | 314° |
| 2026-05-06 10:40 | 34.09795 | -117.81210 | 5735 ft | 237 kts | 312° |
| 2026-05-06 10:40 | 34.10891 | -117.82699 | 6253 ft | 238 kts | 313° |
| 2026-05-06 10:40 | 34.11980 | -117.84227 | 6657 ft | 245 kts | 308° |
| 2026-05-06 10:41 | 34.13016 | -117.86054 | 6114 ft | 297 kts | 303° |
| 2026-05-06 10:41 | 34.14095 | -117.88374 | 6087 ft | 322 kts | 297° |
| 2026-05-06 10:41 | 34.15009 | -117.90988 | 6038 ft | 352 kts | 290° |
| 2026-05-06 10:41 | 34.15680 | -117.93891 | 6375 ft | 369 kts | 281° |
| 2026-05-06 10:42 | 34.15906 | -117.97019 | 6566 ft | 391 kts | 267° |
| 2026-05-06 10:42 | 34.15254 | -118.00318 | 6354 ft | 423 kts | 244° |
| 2026-05-06 10:42 | 34.13347 | -118.03127 | 6517 ft | 444 kts | 216° |